createdAt,value
2018-03-02T00:00:58.631Z,101.97
2018-03-02T00:03:26.181Z,87.27
2018-03-02T00:05:53.745Z,93.47
2018-03-02T00:08:21.281Z,84.43
2018-03-02T00:10:49.810Z,84.50
2018-03-02T00:13:17.351Z,91.13
2018-03-02T00:15:44.893Z,86.00
2018-03-02T00:18:12.452Z,91.83
2018-03-02T00:20:39.983Z,90.73
2018-03-02T00:23:09.528Z,86.40
2018-03-02T00:25:37.260Z,92.23
2018-03-02T00:28:04.801Z,94.37
2018-03-02T00:30:33.133Z,84.23
2018-03-02T00:33:00.673Z,86.33
2018-03-02T00:35:28.235Z,88.93
2018-03-02T00:37:55.772Z,81.43
2018-03-02T00:40:24.314Z,86.13
2018-03-02T00:42:52.632Z,88.37
2018-03-02T00:45:20.171Z,88.47
2018-03-02T00:47:48.572Z,88.57
2018-03-02T00:50:16.117Z,90.33
2018-03-02T00:52:43.688Z,85.43
2018-03-02T00:55:11.222Z,84.63
2018-03-02T00:57:39.744Z,88.93
2018-03-02T01:00:07.275Z,86.30
2018-03-02T01:02:34.820Z,89.50
2018-03-02T01:05:02.387Z,83.13
2018-03-02T01:07:29.927Z,89.43
2018-03-02T01:09:57.505Z,90.07
2018-03-02T01:12:25.819Z,96.27
2018-03-02T01:14:53.369Z,90.77
2018-03-02T01:17:20.919Z,88.23
2018-03-02T01:19:48.466Z,86.10
2018-03-02T01:22:16.002Z,83.93
2018-03-02T01:24:44.325Z,90.13
2018-03-02T01:27:11.846Z,86.33
2018-03-02T01:29:39.405Z,93.80
2018-03-02T01:32:06.937Z,96.80
2018-03-02T01:34:34.498Z,86.37
2018-03-02T01:37:02.031Z,98.00
2018-03-02T01:39:29.590Z,96.33
2018-03-02T01:41:57.117Z,97.23
2018-03-02T01:44:24.685Z,89.10
2018-03-02T01:46:52.235Z,95.30
2018-03-02T01:49:19.793Z,90.37
2018-03-02T01:51:48.948Z,87.17
2018-03-02T01:54:16.470Z,93.57
2018-03-02T01:56:44.023Z,95.43
2018-03-02T01:59:11.570Z,89.03
2018-03-02T02:01:41.070Z,92.87
2018-03-02T02:04:08.589Z,98.07
2018-03-02T02:06:36.151Z,82.77
2018-03-02T02:09:03.691Z,131.60
2018-03-02T02:11:31.244Z,87.63
2018-03-02T02:13:58.796Z,92.50
2018-03-02T02:16:26.331Z,88.83
2018-03-02T02:18:53.894Z,97.23
2018-03-02T02:21:21.436Z,97.33
2018-03-02T02:23:48.990Z,96.80
2018-03-02T02:26:16.575Z,105.03
2018-03-02T02:28:44.101Z,90.33
2018-03-02T02:31:12.414Z,90.50
2018-03-02T02:33:40.920Z,89.90
2018-03-02T02:36:08.490Z,89.93
2018-03-02T02:38:37.011Z,91.30
2018-03-02T02:41:04.577Z,89.53
2018-03-02T02:43:32.124Z,96.03
2018-03-02T02:45:59.673Z,95.87
2018-03-02T02:48:29.184Z,90.70
2018-03-02T02:50:56.720Z,92.27
2018-03-02T02:53:24.284Z,92.60
2018-03-02T02:55:52.594Z,92.27
2018-03-02T02:58:20.149Z,91.50
2018-03-02T03:00:48.650Z,90.97
2018-03-02T03:03:16.181Z,102.00
2018-03-02T03:05:43.740Z,94.03
2018-03-02T03:08:11.276Z,85.67
2018-03-02T03:10:38.830Z,89.53
2018-03-02T03:13:06.394Z,93.33
2018-03-02T03:15:34.736Z,93.73
2018-03-02T03:18:03.238Z,82.80
2018-03-02T03:20:30.807Z,98.73
2018-03-02T03:22:58.338Z,98.37
2018-03-02T03:25:25.862Z,93.47
2018-03-02T03:27:53.416Z,91.23
2018-03-02T03:30:20.946Z,91.20
2018-03-02T03:32:48.502Z,100.30
2018-03-02T03:35:16.079Z,83.13
2018-03-02T03:37:45.402Z,94.40
2018-03-02T03:40:13.014Z,86.83
2018-03-02T03:42:40.574Z,86.77
2018-03-02T03:45:08.099Z,88.63
2018-03-02T03:47:35.623Z,97.87
2018-03-02T03:50:03.182Z,92.87
2018-03-02T03:52:31.474Z,89.00
2018-03-02T03:54:59.026Z,89.20
2018-03-02T03:57:26.558Z,87.70
2018-03-02T03:59:54.128Z,95.07
2018-03-02T04:02:22.422Z,87.60
2018-03-02T04:04:49.982Z,104.97
2018-03-02T04:07:18.473Z,94.33
2018-03-02T04:09:47.965Z,102.27
2018-03-02T04:12:15.495Z,100.57
2018-03-02T04:14:43.034Z,100.53
2018-03-02T04:17:10.591Z,87.97
2018-03-02T04:19:38.118Z,95.67
2018-03-02T04:22:05.692Z,98.07
2018-03-02T04:24:33.213Z,88.97
2018-03-02T04:27:00.777Z,96.37
2018-03-02T04:29:29.273Z,140.80
2018-03-02T04:31:56.846Z,119.43
2018-03-02T04:34:24.385Z,103.20
2018-03-02T04:36:51.915Z,98.10
2018-03-02T04:39:20.242Z,91.97
2018-03-02T04:41:47.775Z,89.17
2018-03-02T04:44:15.337Z,87.70
2018-03-02T04:46:42.861Z,97.03
2018-03-02T04:49:11.186Z,95.80
2018-03-02T04:51:38.719Z,90.67
2018-03-02T04:54:08.232Z,88.40
2018-03-02T04:56:35.778Z,92.17
2018-03-02T04:59:03.354Z,88.87
2018-03-02T05:01:30.881Z,92.13
2018-03-02T05:03:58.415Z,94.77
2018-03-02T05:06:25.976Z,91.33
2018-03-02T05:08:53.504Z,94.60
2018-03-02T05:11:22.047Z,87.00
2018-03-02T05:13:49.603Z,119.37
2018-03-02T05:16:17.930Z,95.63
2018-03-02T05:18:45.468Z,94.67
2018-03-02T05:21:13.043Z,82.57
2018-03-02T05:23:40.582Z,89.00
2018-03-02T05:26:09.223Z,88.60
2018-03-02T05:28:36.795Z,96.37
2018-03-02T05:31:05.089Z,98.13
2018-03-02T05:33:33.420Z,90.33
2018-03-02T05:36:00.950Z,94.13
2018-03-02T05:38:29.474Z,91.33
2018-03-02T05:40:57.779Z,87.77
2018-03-02T05:43:25.333Z,90.53
2018-03-02T05:45:53.623Z,89.70
2018-03-02T05:48:21.166Z,92.03
2018-03-02T05:50:49.485Z,86.20
2018-03-02T05:53:17.020Z,85.90
2018-03-02T05:55:44.575Z,91.17
2018-03-02T05:58:13.065Z,85.00
2018-03-02T06:00:40.636Z,91.67
2018-03-02T06:03:08.199Z,88.00
2018-03-02T06:05:35.754Z,91.00
2018-03-02T06:08:03.288Z,95.50
2018-03-02T06:10:30.837Z,93.13
2018-03-02T06:12:58.374Z,109.37
2018-03-02T06:15:25.964Z,114.23
2018-03-02T06:17:53.517Z,105.47
2018-03-02T06:20:21.817Z,107.53
2018-03-02T06:22:49.461Z,105.60
2018-03-02T06:25:16.990Z,102.80
2018-03-02T06:27:44.562Z,99.10
2018-03-02T06:30:12.102Z,86.23
2018-03-02T06:32:41.658Z,92.83
2018-03-02T06:35:09.190Z,92.77
2018-03-02T06:37:36.817Z,96.20
2018-03-02T06:40:06.089Z,101.13
2018-03-02T06:42:33.658Z,98.77
2018-03-02T06:45:01.218Z,89.60
2018-03-02T06:47:28.957Z,95.97
2018-03-02T06:49:56.534Z,102.30
2018-03-02T06:52:24.119Z,96.40
2018-03-02T06:54:51.677Z,90.77
2018-03-02T06:57:20.023Z,105.70
2018-03-02T06:59:47.820Z,100.77
2018-03-02T07:02:15.400Z,96.67
2018-03-02T07:04:43.734Z,94.00
2018-03-02T07:07:11.302Z,96.30
2018-03-02T07:09:38.844Z,98.13
2018-03-02T07:12:06.401Z,100.33
2018-03-02T07:14:33.944Z,105.47
2018-03-02T07:17:01.494Z,92.27
2018-03-02T07:19:29.030Z,102.80
2018-03-02T07:21:56.620Z,99.27
2018-03-02T07:24:24.156Z,101.13
2018-03-02T07:26:52.563Z,91.93
2018-03-02T07:29:20.157Z,106.70
2018-03-02T07:31:47.687Z,93.70
2018-03-02T07:34:15.258Z,87.73
2018-03-02T07:36:42.832Z,100.27
2018-03-02T07:39:10.400Z,107.50
2018-03-02T07:41:37.948Z,96.80
2018-03-02T07:44:05.507Z,104.07
2018-03-02T07:46:33.983Z,94.87
2018-03-02T07:49:01.538Z,101.70
2018-03-02T07:51:30.052Z,106.40
2018-03-02T07:53:57.581Z,88.70
2018-03-02T07:56:26.366Z,93.80
2018-03-02T07:58:54.107Z,100.93
2018-03-02T08:01:22.822Z,104.03
2018-03-02T08:03:50.515Z,88.43
2018-03-02T08:06:18.859Z,88.27
2018-03-02T08:08:46.397Z,89.73
2018-03-02T08:11:13.955Z,99.30
2018-03-02T08:13:41.491Z,86.23
2018-03-02T08:16:09.107Z,98.43
2018-03-02T08:18:38.591Z,96.73
2018-03-02T08:21:06.138Z,100.63
2018-03-02T08:23:33.693Z,94.03
2018-03-02T08:26:01.308Z,110.10
2018-03-02T08:28:28.903Z,93.50
2018-03-02T08:30:56.427Z,108.90
2018-03-02T08:33:24.749Z,95.37
2018-03-02T08:35:52.278Z,85.63
2018-03-02T08:38:19.818Z,101.43
2018-03-02T08:40:47.361Z,96.10
2018-03-02T08:43:14.887Z,100.77
2018-03-02T08:45:42.503Z,92.30
2018-03-02T08:48:10.026Z,94.20
2018-03-02T08:50:37.594Z,101.93
2018-03-02T08:53:05.145Z,105.03
2018-03-02T08:55:32.702Z,97.20
2018-03-02T08:58:00.224Z,86.20
2018-03-02T09:00:27.775Z,89.37
2018-03-02T09:02:56.264Z,88.90
2018-03-02T09:05:23.782Z,97.13
2018-03-02T09:07:53.285Z,96.30
2018-03-02T09:10:20.810Z,100.57
2018-03-02T09:12:48.367Z,92.80
2018-03-02T09:15:15.891Z,96.20
2018-03-02T09:17:43.451Z,93.13
2018-03-02T09:20:10.977Z,93.40
2018-03-02T09:22:40.478Z,97.23
2018-03-02T09:25:08.039Z,91.97
2018-03-02T09:27:36.365Z,86.83
2018-03-02T09:30:04.021Z,91.33
2018-03-02T09:32:31.578Z,93.60
2018-03-02T09:34:59.154Z,92.10
2018-03-02T09:37:26.719Z,89.63
2018-03-02T09:39:54.282Z,90.80
2018-03-02T09:42:21.812Z,97.00
2018-03-02T09:44:51.350Z,103.63
2018-03-02T09:47:19.837Z,88.40
2018-03-02T09:49:48.334Z,93.63
2018-03-02T09:52:15.913Z,109.30
2018-03-02T09:54:43.454Z,94.47
2018-03-02T09:57:11.044Z,117.43
2018-03-02T09:59:38.582Z,87.67
2018-03-02T10:02:06.137Z,94.10
2018-03-02T10:04:33.702Z,96.77
2018-03-02T10:07:01.330Z,102.67
2018-03-02T10:09:28.854Z,96.47
2018-03-02T10:11:58.357Z,105.40
2018-03-02T10:14:26.661Z,82.30
2018-03-02T10:16:54.252Z,96.90
2018-03-02T10:19:21.818Z,108.53
2018-03-02T10:21:49.358Z,88.40
2018-03-02T10:24:16.912Z,94.43
2018-03-02T10:26:44.445Z,106.40
2018-03-02T10:29:12.038Z,95.93
2018-03-02T10:31:39.596Z,99.27
2018-03-02T10:34:07.199Z,96.23
2018-03-02T10:36:35.570Z,91.13
2018-03-02T10:39:03.900Z,93.80
2018-03-02T10:41:31.474Z,101.20
2018-03-02T10:43:59.011Z,102.97
2018-03-02T10:46:26.574Z,100.37
2018-03-02T10:48:54.128Z,98.03
2018-03-02T10:51:21.689Z,97.93
2018-03-02T10:53:50.181Z,98.57
2018-03-02T10:56:17.761Z,103.57
2018-03-02T10:58:45.314Z,105.27
2018-03-02T11:01:12.869Z,111.40
2018-03-02T11:03:46.127Z,125.07
2018-03-02T11:06:13.682Z,96.80
2018-03-02T11:08:41.219Z,105.33
2018-03-02T11:11:09.570Z,96.17
2018-03-02T11:13:37.096Z,108.17
2018-03-02T11:16:04.623Z,95.97
2018-03-02T11:18:33.588Z,99.93
2018-03-02T11:21:02.504Z,100.93
2018-03-02T11:23:30.068Z,97.83
2018-03-02T11:25:57.609Z,97.63
2018-03-02T11:28:25.174Z,101.43
2018-03-02T11:30:53.474Z,91.73
2018-03-02T11:33:21.040Z,101.83
2018-03-02T11:35:48.566Z,108.53
2018-03-02T11:38:16.887Z,116.30
2018-03-02T11:40:44.415Z,98.53
2018-03-02T11:43:11.975Z,110.27
2018-03-02T11:45:39.535Z,99.40
2018-03-02T11:48:07.058Z,98.77
2018-03-02T11:50:34.606Z,100.60
2018-03-02T11:53:02.142Z,98.40
2018-03-02T11:55:29.820Z,96.80
2018-03-02T11:57:57.347Z,98.40
2018-03-02T12:00:25.910Z,98.30
2018-03-02T12:02:53.446Z,99.30
2018-03-02T12:05:20.969Z,90.57
2018-03-02T12:07:48.524Z,109.20
2018-03-02T12:10:16.064Z,92.47
2018-03-02T12:12:43.622Z,94.83
2018-03-02T12:15:11.159Z,102.17
2018-03-02T12:17:38.714Z,99.90
2018-03-02T12:20:06.248Z,97.23
2018-03-02T12:22:35.611Z,99.80
2018-03-02T12:25:03.262Z,99.67
2018-03-02T12:27:30.792Z,97.80
2018-03-02T12:29:59.123Z,91.73
2018-03-02T12:32:26.660Z,104.97
2018-03-02T12:34:54.218Z,112.37
2018-03-02T12:37:21.746Z,96.80
2018-03-02T12:39:49.299Z,103.33
2018-03-02T12:42:17.770Z,94.77
2018-03-02T12:44:45.326Z,93.87
2018-03-02T12:47:13.624Z,103.23
2018-03-02T12:49:41.189Z,107.53
2018-03-02T12:52:08.717Z,95.50
2018-03-02T12:54:36.342Z,99.03
2018-03-02T12:57:03.867Z,96.40
2018-03-02T12:59:31.399Z,121.23
2018-03-02T13:01:58.962Z,95.57
2018-03-02T13:04:26.490Z,112.50
2018-03-02T13:06:54.048Z,101.30
2018-03-02T13:09:21.576Z,114.83
2018-03-02T13:11:49.118Z,100.07
2018-03-02T13:14:16.966Z,106.03
2018-03-02T13:16:45.505Z,103.23
2018-03-02T13:19:15.026Z,98.23
2018-03-02T13:21:42.594Z,103.73
2018-03-02T13:24:10.184Z,105.30
2018-03-02T13:26:50.290Z,106.97
2018-03-02T13:29:17.934Z,117.30
2018-03-02T13:31:45.483Z,109.67
2018-03-02T13:37:18.368Z,110.40
2018-03-02T13:39:57.673Z,103.90
2018-03-02T13:42:25.225Z,102.23
2018-03-02T13:44:52.778Z,110.80
2018-03-02T13:47:20.298Z,101.40
2018-03-02T13:50:00.827Z,102.93
2018-03-02T13:52:28.353Z,118.67
2018-03-02T13:54:55.908Z,108.17
2018-03-02T13:57:35.278Z,108.40
2018-03-02T14:00:02.825Z,112.07
2018-03-02T14:02:42.176Z,121.73
2018-03-02T14:05:09.733Z,105.93
2018-03-02T14:07:37.260Z,113.60
2018-03-02T14:10:05.735Z,99.33
2018-03-02T14:12:33.268Z,112.33
2018-03-02T14:15:00.803Z,116.33
2018-03-02T14:17:28.354Z,110.17
2018-03-02T14:19:55.898Z,121.17
2018-03-02T14:22:23.480Z,115.17
2018-03-02T14:24:51.011Z,100.90
2018-03-02T14:27:18.570Z,108.37
2018-03-02T14:29:46.138Z,119.50
2018-03-02T14:32:14.499Z,111.60
2018-03-02T14:34:42.028Z,120.43
2018-03-02T14:37:09.558Z,125.17
2018-03-02T14:39:39.078Z,117.90
2018-03-02T14:42:06.601Z,108.40
2018-03-02T14:44:34.160Z,119.67
2018-03-02T14:47:01.694Z,118.00
2018-03-02T14:49:29.246Z,131.03
2018-03-02T14:51:56.788Z,111.47
2018-03-02T14:54:26.286Z,120.97
2018-03-02T14:56:54.791Z,131.33
2018-03-02T14:59:22.318Z,125.10
2018-03-02T15:01:49.872Z,129.13
2018-03-02T15:04:18.346Z,124.50
2018-03-02T15:06:45.916Z,126.77
2018-03-02T15:09:13.451Z,121.67
2018-03-02T15:11:41.001Z,125.93
2018-03-02T15:14:08.536Z,120.60
2018-03-02T15:16:36.094Z,144.50
2018-03-02T15:19:03.683Z,127.87
2018-03-02T15:21:31.982Z,138.53
2018-03-02T15:23:59.551Z,132.37
2018-03-02T15:26:28.163Z,131.33
2018-03-02T15:28:55.716Z,133.43
2018-03-02T15:31:23.239Z,134.47
2018-03-02T15:33:50.802Z,144.30
2018-03-02T15:36:18.324Z,143.00
2018-03-02T15:38:47.863Z,128.57
2018-03-02T15:41:16.381Z,133.07
2018-03-02T15:46:17.881Z,124.53
2018-03-02T15:48:45.448Z,127.47
2018-03-02T15:51:12.974Z,114.47
2018-03-02T15:53:40.520Z,109.57
2018-03-02T15:56:08.078Z,109.17
2018-03-02T15:58:35.598Z,110.73
2018-03-02T16:01:03.149Z,108.53
2018-03-02T16:03:30.686Z,102.70
2018-03-02T16:05:59.008Z,95.60
2018-03-02T16:08:26.562Z,136.17
2018-03-02T16:10:54.119Z,98.73
2018-03-02T16:13:22.600Z,88.87
2018-03-02T16:15:50.360Z,100.17
2018-03-02T16:18:17.887Z,93.93
2018-03-02T16:20:45.448Z,79.40
2018-03-02T16:23:13.012Z,85.10
2018-03-02T16:25:40.542Z,73.70
2018-03-02T16:28:08.095Z,76.33
2018-03-02T16:30:35.774Z,81.03
2018-03-02T16:33:03.553Z,82.93
2018-03-02T16:35:31.112Z,77.20
2018-03-02T16:37:59.617Z,82.30
2018-03-02T16:40:27.145Z,75.10
2018-03-02T16:42:55.432Z,77.93
2018-03-02T16:45:24.734Z,84.90
2018-03-02T16:47:52.270Z,80.70
2018-03-02T16:50:19.840Z,85.83
2018-03-02T16:52:48.146Z,77.20
2018-03-02T16:55:17.658Z,75.27
2018-03-02T16:57:46.158Z,67.00
2018-03-02T17:00:13.729Z,70.73
2018-03-02T17:02:41.270Z,79.83
2018-03-02T17:05:08.815Z,62.13
2018-03-02T17:07:36.370Z,56.10
2018-03-02T17:10:03.995Z,62.67
2018-03-02T17:12:31.546Z,51.77
2018-03-02T17:14:59.073Z,57.00
2018-03-02T17:17:26.625Z,46.90
2018-03-02T17:19:54.155Z,42.67
2018-03-02T17:22:21.713Z,50.10
2018-03-02T17:24:49.262Z,49.40
2018-03-02T17:27:16.829Z,55.07
2018-03-02T17:29:44.387Z,47.13
2018-03-02T17:32:11.913Z,44.47
2018-03-02T17:34:39.467Z,50.60
2018-03-02T17:37:09.014Z,46.67
2018-03-02T17:39:36.643Z,49.73
2018-03-02T17:42:04.915Z,67.83
2018-03-02T17:44:34.407Z,63.43
2018-03-02T17:47:04.124Z,58.67
2018-03-02T17:49:32.863Z,49.27
2018-03-02T17:52:00.417Z,79.50
2018-03-02T17:54:29.664Z,50.87
2018-03-02T17:56:57.316Z,44.13
2018-03-02T17:59:25.653Z,70.20
2018-03-02T18:01:53.209Z,186.27
2018-03-02T18:04:20.749Z,95.70
2018-03-02T18:06:48.354Z,107.20
2018-03-02T18:09:15.910Z,172.60
2018-03-02T18:11:43.465Z,86.27
2018-03-02T18:14:11.583Z,40.57
2018-03-02T18:16:39.194Z,44.63
2018-03-02T18:19:06.738Z,48.10
2018-03-02T18:21:34.269Z,105.27
2018-03-02T18:24:04.524Z,46.90
2018-03-02T18:26:32.054Z,42.67
2018-03-02T18:29:00.578Z,46.80
2018-03-02T18:31:29.149Z,46.20
2018-03-02T18:33:56.724Z,39.53
2018-03-02T18:36:24.265Z,32.93
2018-03-02T18:38:51.822Z,55.70
2018-03-02T18:41:19.354Z,56.30
2018-03-02T18:43:47.652Z,44.37
2018-03-02T18:46:15.271Z,43.33
2018-03-02T18:48:43.575Z,44.30
2018-03-02T18:51:11.134Z,52.13
2018-03-02T18:53:38.684Z,45.23
2018-03-02T18:56:06.256Z,40.70
2018-03-02T18:58:33.789Z,34.20
2018-03-02T19:01:02.301Z,26.03
2018-03-02T19:03:29.821Z,24.60
2018-03-02T19:05:57.351Z,29.13
2018-03-02T19:08:25.687Z,26.93
2018-03-02T19:10:53.609Z,23.27
2018-03-02T19:13:21.178Z,27.93
2018-03-02T19:15:48.709Z,22.70
2018-03-02T19:18:16.269Z,24.67
2018-03-02T19:20:43.798Z,40.70
2018-03-02T19:23:11.349Z,45.53
2018-03-02T19:25:38.889Z,36.33
2018-03-02T19:28:09.140Z,39.70
2018-03-02T19:30:36.669Z,29.03
2018-03-02T19:33:04.219Z,27.57
2018-03-02T19:35:33.507Z,20.27
2018-03-02T19:38:01.033Z,26.57
2018-03-02T19:40:28.594Z,22.97
2018-03-02T19:42:56.331Z,20.77
2018-03-02T19:45:23.938Z,46.90
2018-03-02T19:47:51.470Z,32.00
2018-03-02T19:50:19.035Z,15.33
2018-03-02T19:52:46.575Z,15.80
2018-03-02T19:55:14.110Z,24.50
2018-03-02T19:57:41.709Z,20.90
2018-03-02T20:00:09.239Z,19.77
2018-03-02T20:02:36.809Z,17.90
2018-03-02T20:05:04.347Z,17.57
2018-03-02T20:07:32.834Z,22.10
2018-03-02T20:10:01.190Z,21.30
2018-03-02T20:12:30.714Z,23.87
2018-03-02T20:14:58.411Z,16.90
2018-03-02T20:17:26.734Z,18.37
2018-03-02T20:19:54.285Z,17.70
2018-03-02T20:22:22.209Z,15.80
2018-03-02T20:24:50.781Z,16.60
2018-03-02T20:27:18.759Z,22.20
2018-03-02T20:29:46.346Z,16.23
2018-03-02T20:32:13.897Z,20.03
2018-03-02T20:34:41.454Z,20.57
2018-03-02T20:37:08.994Z,27.13
2018-03-02T20:39:36.554Z,24.63
2018-03-02T20:42:04.094Z,24.00
2018-03-02T20:44:31.639Z,21.83
2018-03-02T20:46:59.959Z,25.50
2018-03-02T20:49:27.530Z,32.60
2018-03-02T20:51:55.080Z,27.77
2018-03-02T20:54:22.611Z,21.37
2018-03-02T20:56:50.200Z,32.47
2018-03-02T20:59:17.739Z,27.80
2018-03-02T21:01:45.282Z,17.57
2018-03-02T21:04:12.817Z,22.60
2018-03-02T21:06:42.067Z,26.90
2018-03-02T21:09:09.633Z,18.70
2018-03-02T21:11:37.150Z,18.53
2018-03-02T21:14:04.706Z,21.10
2018-03-02T21:16:32.239Z,25.73
2018-03-02T21:18:59.791Z,26.17
2018-03-02T21:21:27.312Z,27.73
2018-03-02T21:23:54.871Z,25.87
2018-03-02T21:26:22.398Z,24.03
2018-03-02T21:28:50.681Z,21.90
2018-03-02T21:31:18.258Z,21.70
2018-03-02T21:33:45.864Z,24.47
2018-03-02T21:36:13.413Z,25.37
2018-03-02T21:38:40.947Z,29.20
2018-03-02T21:41:08.510Z,16.87
2018-03-02T21:43:36.038Z,22.93
2018-03-02T21:46:03.605Z,16.77
2018-03-02T21:48:31.806Z,17.03
2018-03-02T21:50:59.349Z,20.47
2018-03-02T21:53:26.885Z,34.00
2018-03-02T21:55:54.404Z,14.70
2018-03-02T21:58:21.968Z,19.97
2018-03-02T22:00:49.486Z,21.23
2018-03-02T22:03:17.054Z,16.90
2018-03-02T22:05:45.553Z,26.83
2018-03-02T22:08:13.108Z,22.73
2018-03-02T22:10:43.676Z,25.17
2018-03-02T22:13:18.327Z,25.07
2018-03-02T22:15:45.967Z,25.63
2018-03-02T22:18:14.435Z,23.07
2018-03-02T22:20:42.775Z,22.37
2018-03-02T22:23:10.304Z,26.37
2018-03-02T22:25:37.852Z,16.47
2018-03-02T22:28:05.383Z,18.87
2018-03-02T22:30:32.934Z,16.93
2018-03-02T22:33:00.466Z,23.57
2018-03-02T22:35:28.023Z,18.00
2018-03-02T22:37:55.550Z,23.63
2018-03-02T22:40:24.080Z,23.20
2018-03-02T22:42:51.595Z,27.20
2018-03-02T22:45:19.121Z,31.93
2018-03-02T22:47:46.707Z,20.07
2018-03-02T22:50:14.239Z,17.03
2018-03-02T22:52:42.559Z,21.27
2018-03-02T22:55:10.073Z,19.33
2018-03-02T22:57:38.399Z,18.33
2018-03-02T23:00:06.134Z,18.52
2018-03-02T23:02:36.382Z,16.90
2018-03-02T23:05:03.921Z,20.20
2018-03-02T23:07:31.450Z,22.73
2018-03-02T23:09:59.003Z,16.50
2018-03-02T23:12:27.314Z,21.23
2018-03-02T23:14:54.888Z,19.33
2018-03-02T23:17:23.385Z,19.40
2018-03-02T23:19:52.882Z,21.23
2018-03-02T23:22:20.405Z,26.90
2018-03-02T23:24:47.957Z,33.20
2018-03-02T23:27:15.478Z,36.03
2018-03-02T23:29:44.961Z,28.50
2018-03-02T23:32:12.479Z,38.23
2018-03-02T23:34:40.020Z,36.87
2018-03-02T23:37:08.349Z,22.87
2018-03-02T23:39:35.872Z,29.90
2018-03-02T23:42:03.443Z,23.80
2018-03-02T23:44:30.973Z,32.90
2018-03-02T23:46:58.555Z,22.50
2018-03-02T23:49:26.084Z,23.03
2018-03-02T23:51:53.636Z,20.17
2018-03-02T23:54:21.186Z,23.70
2018-03-02T23:56:48.711Z,17.70
2018-03-02T23:59:16.294Z,15.27
